sensor_id;sensor_type;location;lat;lon;timestamp;temperature;humidity
60242;SHT30;46103;52.076;113.488;2022-12-29T00:03:20;-21.74;54.06
60242;SHT30;46103;52.076;113.488;2022-12-29T00:09:46;-21.79;54.19
60242;SHT30;46103;52.076;113.488;2022-12-29T00:12:50;-21.79;54.56
60242;SHT30;46103;52.076;113.488;2022-12-29T00:16:12;-21.81;54.99
60242;SHT30;46103;52.076;113.488;2022-12-29T00:19:15;-21.82;55.37
60242;SHT30;46103;52.076;113.488;2022-12-29T00:22:38;-21.82;55.07
60242;SHT30;46103;52.076;113.488;2022-12-29T00:26:03;-21.81;55.28
60242;SHT30;46103;52.076;113.488;2022-12-29T00:29:26;-21.81;55.88
60242;SHT30;46103;52.076;113.488;2022-12-29T00:33:33;-21.88;54.68
60242;SHT30;46103;52.076;113.488;2022-12-29T00:36:57;-21.85;54.09
60242;SHT30;46103;52.076;113.488;2022-12-29T00:40:02;-21.83;54.32
60242;SHT30;46103;52.076;113.488;2022-12-29T00:43:24;-21.78;54.07
60242;SHT30;46103;52.076;113.488;2022-12-29T00:46:47;-21.75;53.66
60242;SHT30;46103;52.076;113.488;2022-12-29T00:50:09;-21.79;53.63
60242;SHT30;46103;52.076;113.488;2022-12-29T00:53:32;-21.77;54.04
60242;SHT30;46103;52.076;113.488;2022-12-29T00:56:36;-21.70;54.06
60242;SHT30;46103;52.076;113.488;2022-12-29T00:59:41;-21.64;53.98
60242;SHT30;46103;52.076;113.488;2022-12-29T01:02:45;-21.57;53.81
60242;SHT30;46103;52.076;113.488;2022-12-29T01:05:51;-21.54;53.40
60242;SHT30;46103;52.076;113.488;2022-12-29T01:08:54;-21.46;52.78
60242;SHT30;46103;52.076;113.488;2022-12-29T01:12:18;-21.37;52.77
60242;SHT30;46103;52.076;113.488;2022-12-29T01:15:52;-21.30;52.61
60242;SHT30;46103;52.076;113.488;2022-12-29T01:18:57;-21.30;53.09
60242;SHT30;46103;52.076;113.488;2022-12-29T01:22:02;-21.29;52.45
60242;SHT30;46103;52.076;113.488;2022-12-29T01:25:24;-21.19;51.96
60242;SHT30;46103;52.076;113.488;2022-12-29T01:28:30;-21.08;51.69
60242;SHT30;46103;52.076;113.488;2022-12-29T01:35:14;-20.80;51.43
60242;SHT30;46103;52.076;113.488;2022-12-29T01:38:20;-20.70;51.61
60242;SHT30;46103;52.076;113.488;2022-12-29T01:41:24;-20.64;51.19
60242;SHT30;46103;52.076;113.488;2022-12-29T01:44:55;-20.59;51.76
60242;SHT30;46103;52.076;113.488;2022-12-29T01:55:27;-20.43;50.42
60242;SHT30;46103;52.076;113.488;2022-12-29T01:58:59;-20.37;50.34
60242;SHT30;46103;52.076;113.488;2022-12-29T02:02:04;-20.32;50.62
60242;SHT30;46103;52.076;113.488;2022-12-29T02:05:49;-20.19;50.72
60242;SHT30;46103;52.076;113.488;2022-12-29T02:08:56;-20.08;50.52
60242;SHT30;46103;52.076;113.488;2022-12-29T02:12:01;-19.96;50.68
60242;SHT30;46103;52.076;113.488;2022-12-29T02:15:06;-19.81;50.15
60242;SHT30;46103;52.076;113.488;2022-12-29T02:18:31;-19.73;50.10
60242;SHT30;46103;52.076;113.488;2022-12-29T02:21:59;-19.62;49.82
60242;SHT30;46103;52.076;113.488;2022-12-29T02:31:58;-19.42;49.17
60242;SHT30;46103;52.076;113.488;2022-12-29T02:42:13;-19.10;48.76
60242;SHT30;46103;52.076;113.488;2022-12-29T02:46:26;-18.94;48.71
60242;SHT30;46103;52.076;113.488;2022-12-29T02:49:10;-18.80;48.38
60242;SHT30;46103;52.076;113.488;2022-12-29T02:52:57;-18.69;48.09
60242;SHT30;46103;52.076;113.488;2022-12-29T02:56:25;-18.46;48.11
60242;SHT30;46103;52.076;113.488;2022-12-29T02:59:30;-18.25;47.90
60242;SHT30;46103;52.076;113.488;2022-12-29T03:02:52;-17.98;48.52
60242;SHT30;46103;52.076;113.488;2022-12-29T03:06:04;-17.69;47.99
60242;SHT30;46103;52.076;113.488;2022-12-29T03:09:26;-17.34;47.76
60242;SHT30;46103;52.076;113.488;2022-12-29T03:19:14;-16.63;46.63
60242;SHT30;46103;52.076;113.488;2022-12-29T03:22:25;-16.48;45.76
60242;SHT30;46103;52.076;113.488;2022-12-29T03:25:55;-16.31;45.96
60242;SHT30;46103;52.076;113.488;2022-12-29T03:29:00;-16.18;45.84
60242;SHT30;46103;52.076;113.488;2022-12-29T03:32:26;-16.07;46.29
60242;SHT30;46103;52.076;113.488;2022-12-29T03:35:35;-15.99;46.32
60242;SHT30;46103;52.076;113.488;2022-12-29T03:38:52;-15.92;45.82
60242;SHT30;46103;52.076;113.488;2022-12-29T03:42:02;-15.81;45.01
60242;SHT30;46103;52.076;113.488;2022-12-29T03:45:10;-15.74;45.03
60242;SHT30;46103;52.076;113.488;2022-12-29T03:48:14;-15.71;45.00
60242;SHT30;46103;52.076;113.488;2022-12-29T03:51:19;-15.54;45.30
60242;SHT30;46103;52.076;113.488;2022-12-29T03:54:24;-15.41;44.98
60242;SHT30;46103;52.076;113.488;2022-12-29T03:57:29;-15.28;44.88
60242;SHT30;46103;52.076;113.488;2022-12-29T04:00:39;-15.40;45.00
60242;SHT30;46103;52.076;113.488;2022-12-29T04:03:42;-15.40;45.74
60242;SHT30;46103;52.076;113.488;2022-12-29T04:06:46;-15.43;45.99
60242;SHT30;46103;52.076;113.488;2022-12-29T04:09:49;-15.44;46.47
60242;SHT30;46103;52.076;113.488;2022-12-29T04:12:58;-15.31;46.92
60242;SHT30;46103;52.076;113.488;2022-12-29T04:16:04;-15.06;46.98
60242;SHT30;46103;52.076;113.488;2022-12-29T04:19:10;-14.98;47.34
60242;SHT30;46103;52.076;113.488;2022-12-29T04:22:13;-14.95;47.78
60242;SHT30;46103;52.076;113.488;2022-12-29T04:25:20;-14.79;47.28
60242;SHT30;46103;52.076;113.488;2022-12-29T04:28:23;-14.57;46.98
60242;SHT30;46103;52.076;113.488;2022-12-29T04:32:05;-14.29;46.67
60242;SHT30;46103;52.076;113.488;2022-12-29T04:35:28;-13.99;46.05
60242;SHT30;46103;52.076;113.488;2022-12-29T04:38:51;-13.75;46.03
60242;SHT30;46103;52.076;113.488;2022-12-29T04:41:54;-13.51;45.63
60242;SHT30;46103;52.076;113.488;2022-12-29T04:45:18;-13.32;45.54
60242;SHT30;46103;52.076;113.488;2022-12-29T04:48:50;-13.11;45.76
60242;SHT30;46103;52.076;113.488;2022-12-29T04:52:11;-12.85;46.14
60242;SHT30;46103;52.076;113.488;2022-12-29T04:55:17;-12.67;45.46
60242;SHT30;46103;52.076;113.488;2022-12-29T04:58:39;-12.42;45.04
60242;SHT30;46103;52.076;113.488;2022-12-29T05:01:43;-12.19;44.53
60242;SHT30;46103;52.076;113.488;2022-12-29T05:04:46;-11.94;44.17
60242;SHT30;46103;52.076;113.488;2022-12-29T05:07:50;-11.81;44.37
60242;SHT30;46103;52.076;113.488;2022-12-29T05:10:53;-11.67;44.44
60242;SHT30;46103;52.076;113.488;2022-12-29T05:13:57;-11.49;43.98
60242;SHT30;46103;52.076;113.488;2022-12-29T05:17:20;-11.49;43.51
60242;SHT30;46103;52.076;113.488;2022-12-29T05:20:23;-11.50;44.10
60242;SHT30;46103;52.076;113.488;2022-12-29T05:23:27;-11.52;43.67
60242;SHT30;46103;52.076;113.488;2022-12-29T05:26:35;-11.53;43.39
60242;SHT30;46103;52.076;113.488;2022-12-29T05:29:44;-11.70;43.09
60242;SHT30;46103;52.076;113.488;2022-12-29T05:32:48;-12.03;44.02
60242;SHT30;46103;52.076;113.488;2022-12-29T05:35:52;-12.12;44.58
60242;SHT30;46103;52.076;113.488;2022-12-29T05:38:57;-12.08;44.87
60242;SHT30;46103;52.076;113.488;2022-12-29T05:42:01;-11.91;45.01
60242;SHT30;46103;52.076;113.488;2022-12-29T05:45:27;-11.75;44.98
60242;SHT30;46103;52.076;113.488;2022-12-29T05:48:57;-11.75;45.12
60242;SHT30;46103;52.076;113.488;2022-12-29T05:52:37;-11.82;45.49
60242;SHT30;46103;52.076;113.488;2022-12-29T05:55:41;-11.92;45.68
60242;SHT30;46103;52.076;113.488;2022-12-29T05:58:51;-12.02;45.58
60242;SHT30;46103;52.076;113.488;2022-12-29T06:01:56;-11.97;45.64
60242;SHT30;46103;52.076;113.488;2022-12-29T06:04:59;-11.81;45.38
60242;SHT30;46103;52.076;113.488;2022-12-29T06:08:04;-11.69;45.44
60242;SHT30;46103;52.076;113.488;2022-12-29T06:11:08;-11.64;45.82
60242;SHT30;46103;52.076;113.488;2022-12-29T06:14:16;-11.66;46.70
60242;SHT30;46103;52.076;113.488;2022-12-29T06:17:19;-11.56;45.84
60242;SHT30;46103;52.076;113.488;2022-12-29T06:20:25;-11.49;44.92
60242;SHT30;46103;52.076;113.488;2022-12-29T06:23:28;-11.36;44.87
60242;SHT30;46103;52.076;113.488;2022-12-29T06:26:33;-11.28;44.74
60242;SHT30;46103;52.076;113.488;2022-12-29T06:29:37;-11.18;44.83
60242;SHT30;46103;52.076;113.488;2022-12-29T06:32:43;-11.04;44.97
60242;SHT30;46103;52.076;113.488;2022-12-29T06:35:48;-10.95;45.09
60242;SHT30;46103;52.076;113.488;2022-12-29T06:42:50;-10.71;45.10
60242;SHT30;46103;52.076;113.488;2022-12-29T06:46:22;-10.54;45.56
60242;SHT30;46103;52.076;113.488;2022-12-29T06:49:26;-10.43;45.24
60242;SHT30;46103;52.076;113.488;2022-12-29T06:52:29;-10.25;44.24
60242;SHT30;46103;52.076;113.488;2022-12-29T06:58:55;-10.05;44.47
60242;SHT30;46103;52.076;113.488;2022-12-29T07:01:58;-9.94;44.49
60242;SHT30;46103;52.076;113.488;2022-12-29T07:05:02;-9.81;44.48
60242;SHT30;46103;52.076;113.488;2022-12-29T07:08:05;-9.73;44.11
60242;SHT30;46103;52.076;113.488;2022-12-29T07:11:08;-9.75;44.23
60242;SHT30;46103;52.076;113.488;2022-12-29T07:14:12;-9.78;44.37
60242;SHT30;46103;52.076;113.488;2022-12-29T07:17:17;-9.74;44.75
60242;SHT30;46103;52.076;113.488;2022-12-29T07:20:20;-9.70;44.19
60242;SHT30;46103;52.076;113.488;2022-12-29T07:23:28;-9.63;43.32
60242;SHT30;46103;52.076;113.488;2022-12-29T07:30:15;-10.18;43.87
60242;SHT30;46103;52.076;113.488;2022-12-29T07:33:18;-10.43;44.49
60242;SHT30;46103;52.076;113.488;2022-12-29T07:36:22;-10.74;45.11
60242;SHT30;46103;52.076;113.488;2022-12-29T07:39:44;-11.12;46.24
60242;SHT30;46103;52.076;113.488;2022-12-29T07:42:49;-11.26;46.91
60242;SHT30;46103;52.076;113.488;2022-12-29T07:46:18;-11.49;47.68
60242;SHT30;46103;52.076;113.488;2022-12-29T07:49:41;-11.53;48.20
60242;SHT30;46103;52.076;113.488;2022-12-29T07:52:45;-11.50;48.40
60242;SHT30;46103;52.076;113.488;2022-12-29T07:55:51;-11.44;48.71
60242;SHT30;46103;52.076;113.488;2022-12-29T07:59:14;-11.42;48.49
60242;SHT30;46103;52.076;113.488;2022-12-29T08:02:18;-11.54;48.59
60242;SHT30;46103;52.076;113.488;2022-12-29T08:05:22;-11.71;49.04
60242;SHT30;46103;52.076;113.488;2022-12-29T08:08:26;-11.88;49.53
60242;SHT30;46103;52.076;113.488;2022-12-29T08:11:30;-12.11;50.00
60242;SHT30;46103;52.076;113.488;2022-12-29T08:14:34;-12.26;50.36
60242;SHT30;46103;52.076;113.488;2022-12-29T08:17:38;-12.57;51.04
60242;SHT30;46103;52.076;113.488;2022-12-29T08:20:42;-12.78;51.84
60242;SHT30;46103;52.076;113.488;2022-12-29T08:23:47;-12.95;52.60
60242;SHT30;46103;52.076;113.488;2022-12-29T08:26:51;-13.08;53.36
60242;SHT30;46103;52.076;113.488;2022-12-29T08:29:56;-13.15;53.86
60242;SHT30;46103;52.076;113.488;2022-12-29T08:33:01;-13.32;54.05
60242;SHT30;46103;52.076;113.488;2022-12-29T08:36:07;-13.42;54.71
60242;SHT30;46103;52.076;113.488;2022-12-29T08:43:17;-13.82;56.68
60242;SHT30;46103;52.076;113.488;2022-12-29T08:46:39;-13.93;57.42
60242;SHT30;46103;52.076;113.488;2022-12-29T08:49:44;-13.91;57.44
60242;SHT30;46103;52.076;113.488;2022-12-29T08:52:48;-13.96;57.59
60242;SHT30;46103;52.076;113.488;2022-12-29T08:56:10;-14.08;57.52
60242;SHT30;46103;52.076;113.488;2022-12-29T08:59:21;-14.20;57.68
60242;SHT30;46103;52.076;113.488;2022-12-29T09:02:25;-14.36;58.59
60242;SHT30;46103;52.076;113.488;2022-12-29T09:05:51;-14.41;59.94
60242;SHT30;46103;52.076;113.488;2022-12-29T09:08:55;-14.50;60.03
60242;SHT30;46103;52.076;113.488;2022-12-29T09:12:17;-14.54;60.10
60242;SHT30;46103;52.076;113.488;2022-12-29T09:15:21;-14.44;59.33
60242;SHT30;46103;52.076;113.488;2022-12-29T09:18:25;-14.39;58.89
60242;SHT30;46103;52.076;113.488;2022-12-29T09:21:28;-14.30;58.63
60242;SHT30;46103;52.076;113.488;2022-12-29T09:24:32;-14.26;58.20
60242;SHT30;46103;52.076;113.488;2022-12-29T09:27:36;-14.20;57.94
60242;SHT30;46103;52.076;113.488;2022-12-29T09:30:59;-14.23;57.90
60242;SHT30;46103;52.076;113.488;2022-12-29T09:34:03;-14.25;58.06
60242;SHT30;46103;52.076;113.488;2022-12-29T09:37:06;-14.30;58.28
60242;SHT30;46103;52.076;113.488;2022-12-29T09:40:30;-14.43;58.69
60242;SHT30;46103;52.076;113.488;2022-12-29T09:47:26;-14.34;59.85
60242;SHT30;46103;52.076;113.488;2022-12-29T09:50:37;-14.39;61.55
60242;SHT30;46103;52.076;113.488;2022-12-29T09:53:46;-14.48;62.09
60242;SHT30;46103;52.076;113.488;2022-12-29T09:58:10;-14.47;63.08
60242;SHT30;46103;52.076;113.488;2022-12-29T10:01:06;-14.57;63.26
60242;SHT30;46103;52.076;113.488;2022-12-29T10:04:11;-14.50;62.25
60242;SHT30;46103;52.076;113.488;2022-12-29T10:11:23;-14.53;62.71
60242;SHT30;46103;52.076;113.488;2022-12-29T10:18:10;-14.65;62.82
60242;SHT30;46103;52.076;113.488;2022-12-29T10:24:47;-14.68;63.50
60242;SHT30;46103;52.076;113.488;2022-12-29T10:27:55;-14.69;65.25
60242;SHT30;46103;52.076;113.488;2022-12-29T10:31:01;-14.61;65.10
60242;SHT30;46103;52.076;113.488;2022-12-29T10:41:18;-14.29;63.84
60242;SHT30;46103;52.076;113.488;2022-12-29T10:44:27;-14.25;62.67
60242;SHT30;46103;52.076;113.488;2022-12-29T10:47:37;-14.19;63.75
60242;SHT30;46103;52.076;113.488;2022-12-29T10:50:41;-14.18;63.65
60242;SHT30;46103;52.076;113.488;2022-12-29T10:53:53;-14.09;63.06
60242;SHT30;46103;52.076;113.488;2022-12-29T10:57:25;-14.10;62.84
60242;SHT30;46103;52.076;113.488;2022-12-29T11:00:29;-14.10;62.78
60242;SHT30;46103;52.076;113.488;2022-12-29T11:07:05;-14.12;63.45
60242;SHT30;46103;52.076;113.488;2022-12-29T11:13:58;-14.30;63.46
60242;SHT30;46103;52.076;113.488;2022-12-29T11:17:04;-14.19;62.27
60242;SHT30;46103;52.076;113.488;2022-12-29T11:20:37;-14.26;61.21
60242;SHT30;46103;52.076;113.488;2022-12-29T11:23:41;-14.39;60.40
60242;SHT30;46103;52.076;113.488;2022-12-29T11:26:46;-14.34;60.92
60242;SHT30;46103;52.076;113.488;2022-12-29T11:29:51;-14.44;61.42
60242;SHT30;46103;52.076;113.488;2022-12-29T11:32:56;-14.44;62.01
60242;SHT30;46103;52.076;113.488;2022-12-29T11:36:06;-14.33;61.44
60242;SHT30;46103;52.076;113.488;2022-12-29T11:39:34;-14.41;60.45
60242;SHT30;46103;52.076;113.488;2022-12-29T11:42:50;-14.39;61.91
60242;SHT30;46103;52.076;113.488;2022-12-29T11:46:03;-14.36;62.37
60242;SHT30;46103;52.076;113.488;2022-12-29T11:49:26;-14.40;62.21
60242;SHT30;46103;52.076;113.488;2022-12-29T11:52:37;-14.51;62.61
60242;SHT30;46103;52.076;113.488;2022-12-29T11:55:55;-14.60;62.12
60242;SHT30;46103;52.076;113.488;2022-12-29T12:02:51;-14.69;61.51
60242;SHT30;46103;52.076;113.488;2022-12-29T12:06:03;-14.79;61.53
60242;SHT30;46103;52.076;113.488;2022-12-29T12:09:35;-14.85;62.16
60242;SHT30;46103;52.076;113.488;2022-12-29T12:12:48;-14.96;61.58
60242;SHT30;46103;52.076;113.488;2022-12-29T12:16:08;-15.13;62.00
60242;SHT30;46103;52.076;113.488;2022-12-29T12:22:46;-15.26;62.32
60242;SHT30;46103;52.076;113.488;2022-12-29T12:26:02;-15.31;62.93
60242;SHT30;46103;52.076;113.488;2022-12-29T12:33:35;-15.57;64.41
60242;SHT30;46103;52.076;113.488;2022-12-29T12:36:55;-15.71;64.36
60242;SHT30;46103;52.076;113.488;2022-12-29T12:44:06;-15.83;65.31
60242;SHT30;46103;52.076;113.488;2022-12-29T12:58:26;-16.00;65.34
60242;SHT30;46103;52.076;113.488;2022-12-29T13:05:27;-16.04;66.51
60242;SHT30;46103;52.076;113.488;2022-12-29T13:09:03;-16.13;64.24
60242;SHT30;46103;52.076;113.488;2022-12-29T13:29:19;-16.59;67.00
60242;SHT30;46103;52.076;113.488;2022-12-29T13:36:00;-16.55;66.66
60242;SHT30;46103;52.076;113.488;2022-12-29T13:42:23;-16.59;67.26
60242;SHT30;46103;52.076;113.488;2022-12-29T13:45:29;-16.68;67.38
60242;SHT30;46103;52.076;113.488;2022-12-29T13:48:49;-16.61;67.31
60242;SHT30;46103;52.076;113.488;2022-12-29T13:52:11;-16.61;67.20
60242;SHT30;46103;52.076;113.488;2022-12-29T14:01:41;-16.75;68.08
60242;SHT30;46103;52.076;113.488;2022-12-29T14:04:58;-16.69;67.37
60242;SHT30;46103;52.076;113.488;2022-12-29T14:08:04;-16.88;67.30
60242;SHT30;46103;52.076;113.488;2022-12-29T14:11:10;-16.92;67.36
60242;SHT30;46103;52.076;113.488;2022-12-29T14:14:28;-16.86;67.30
60242;SHT30;46103;52.076;113.488;2022-12-29T14:17:32;-16.82;66.90
60242;SHT30;46103;52.076;113.488;2022-12-29T14:20:36;-16.79;66.66
60242;SHT30;46103;52.076;113.488;2022-12-29T14:27:44;-16.79;65.89
60242;SHT30;46103;52.076;113.488;2022-12-29T14:30:52;-16.86;66.03
60242;SHT30;46103;52.076;113.488;2022-12-29T14:40:29;-17.34;69.27
60242;SHT30;46103;52.076;113.488;2022-12-29T14:43:33;-17.24;68.52
60242;SHT30;46103;52.076;113.488;2022-12-29T14:50:23;-17.16;67.28
60242;SHT30;46103;52.076;113.488;2022-12-29T14:53:41;-17.16;67.21
60242;SHT30;46103;52.076;113.488;2022-12-29T14:57:13;-17.04;67.29
60242;SHT30;46103;52.076;113.488;2022-12-29T15:00:25;-16.97;66.75
60242;SHT30;46103;52.076;113.488;2022-12-29T15:03:47;-16.95;67.44
60242;SHT30;46103;52.076;113.488;2022-12-29T15:06:53;-16.89;66.80
60242;SHT30;46103;52.076;113.488;2022-12-29T15:10:07;-16.82;67.16
60242;SHT30;46103;52.076;113.488;2022-12-29T15:13:17;-16.78;66.96
60242;SHT30;46103;52.076;113.488;2022-12-29T15:16:25;-16.88;67.39
60242;SHT30;46103;52.076;113.488;2022-12-29T15:19:30;-16.85;67.65
60242;SHT30;46103;52.076;113.488;2022-12-29T15:22:34;-16.93;67.40
60242;SHT30;46103;52.076;113.488;2022-12-29T15:25:47;-17.03;66.59
60242;SHT30;46103;52.076;113.488;2022-12-29T15:28:55;-17.27;66.99
60242;SHT30;46103;52.076;113.488;2022-12-29T15:38:49;-17.28;67.07
60242;SHT30;46103;52.076;113.488;2022-12-29T15:41:56;-17.27;67.64
60242;SHT30;46103;52.076;113.488;2022-12-29T15:45:08;-17.31;66.90
60242;SHT30;46103;52.076;113.488;2022-12-29T15:48:19;-17.32;67.77
60242;SHT30;46103;52.076;113.488;2022-12-29T15:51:30;-17.32;65.83
60242;SHT30;46103;52.076;113.488;2022-12-29T15:54:53;-17.28;68.12
60242;SHT30;46103;52.076;113.488;2022-12-29T15:58:22;-17.27;66.16
60242;SHT30;46103;52.076;113.488;2022-12-29T16:01:36;-17.18;67.84
60242;SHT30;46103;52.076;113.488;2022-12-29T16:04:40;-17.16;67.13
60242;SHT30;46103;52.076;113.488;2022-12-29T16:08:39;-17.18;65.69
60242;SHT30;46103;52.076;113.488;2022-12-29T16:11:53;-17.14;67.58
60242;SHT30;46103;52.076;113.488;2022-12-29T16:15:06;-17.14;66.59
60242;SHT30;46103;52.076;113.488;2022-12-29T16:18:36;-17.16;66.28
60242;SHT30;46103;52.076;113.488;2022-12-29T16:21:41;-17.30;67.59
60242;SHT30;46103;52.076;113.488;2022-12-29T16:24:45;-17.17;67.49
60242;SHT30;46103;52.076;113.488;2022-12-29T16:27:48;-17.18;64.73
60242;SHT30;46103;52.076;113.488;2022-12-29T16:31:03;-17.20;64.72
60242;SHT30;46103;52.076;113.488;2022-12-29T16:37:34;-17.38;62.67
60242;SHT30;46103;52.076;113.488;2022-12-29T16:44:19;-17.69;62.51
60242;SHT30;46103;52.076;113.488;2022-12-29T16:47:30;-17.67;65.93
60242;SHT30;46103;52.076;113.488;2022-12-29T16:50:35;-17.69;65.38
60242;SHT30;46103;52.076;113.488;2022-12-29T16:53:42;-17.63;65.84
60242;SHT30;46103;52.076;113.488;2022-12-29T16:56:51;-17.77;61.98
60242;SHT30;46103;52.076;113.488;2022-12-29T16:59:59;-17.80;63.73
60242;SHT30;46103;52.076;113.488;2022-12-29T17:03:03;-17.73;62.83
60242;SHT30;46103;52.076;113.488;2022-12-29T17:06:14;-17.73;64.11
60242;SHT30;46103;52.076;113.488;2022-12-29T17:09:27;-17.63;63.77
60242;SHT30;46103;52.076;113.488;2022-12-29T17:12:33;-17.79;63.83
60242;SHT30;46103;52.076;113.488;2022-12-29T17:15:37;-17.72;64.82
60242;SHT30;46103;52.076;113.488;2022-12-29T17:18:41;-17.75;65.80
60242;SHT30;46103;52.076;113.488;2022-12-29T17:21:45;-17.83;63.62
60242;SHT30;46103;52.076;113.488;2022-12-29T17:24:49;-17.79;64.73
60242;SHT30;46103;52.076;113.488;2022-12-29T17:31:02;-17.67;66.76
60242;SHT30;46103;52.076;113.488;2022-12-29T17:34:09;-17.66;67.18
60242;SHT30;46103;52.076;113.488;2022-12-29T17:37:34;-17.65;65.77
60242;SHT30;46103;52.076;113.488;2022-12-29T17:40:38;-17.61;66.66
60242;SHT30;46103;52.076;113.488;2022-12-29T17:43:42;-17.65;64.06
60242;SHT30;46103;52.076;113.488;2022-12-29T17:46:46;-17.66;63.43
60242;SHT30;46103;52.076;113.488;2022-12-29T17:49:51;-17.77;66.78
60242;SHT30;46103;52.076;113.488;2022-12-29T17:53:00;-17.75;66.89
60242;SHT30;46103;52.076;113.488;2022-12-29T17:56:05;-17.76;68.52
60242;SHT30;46103;52.076;113.488;2022-12-29T17:59:11;-17.69;68.99
60242;SHT30;46103;52.076;113.488;2022-12-29T18:02:26;-17.66;68.94
60242;SHT30;46103;52.076;113.488;2022-12-29T18:05:30;-17.66;68.37
60242;SHT30;46103;52.076;113.488;2022-12-29T18:08:36;-17.56;68.84
60242;SHT30;46103;52.076;113.488;2022-12-29T18:11:58;-17.61;67.20
60242;SHT30;46103;52.076;113.488;2022-12-29T18:15:01;-17.61;66.79
60242;SHT30;46103;52.076;113.488;2022-12-29T18:18:13;-17.51;68.65
60242;SHT30;46103;52.076;113.488;2022-12-29T18:21:19;-17.55;67.92
60242;SHT30;46103;52.076;113.488;2022-12-29T18:24:24;-17.58;65.67
60242;SHT30;46103;52.076;113.488;2022-12-29T18:27:28;-17.65;63.61
60242;SHT30;46103;52.076;113.488;2022-12-29T18:30:32;-17.69;64.88
60242;SHT30;46103;52.076;113.488;2022-12-29T18:33:36;-17.80;64.21
60242;SHT30;46103;52.076;113.488;2022-12-29T18:36:39;-17.83;64.24
60242;SHT30;46103;52.076;113.488;2022-12-29T18:39:43;-17.89;60.92
60242;SHT30;46103;52.076;113.488;2022-12-29T18:42:46;-17.97;60.63
60242;SHT30;46103;52.076;113.488;2022-12-29T18:45:50;-17.86;62.81
60242;SHT30;46103;52.076;113.488;2022-12-29T18:48:54;-17.79;66.80
60242;SHT30;46103;52.076;113.488;2022-12-29T18:51:58;-17.86;59.33
60242;SHT30;46103;52.076;113.488;2022-12-29T18:55:01;-17.98;58.70
60242;SHT30;46103;52.076;113.488;2022-12-29T18:58:08;-18.08;56.58
60242;SHT30;46103;52.076;113.488;2022-12-29T19:01:29;-18.17;56.12
60242;SHT30;46103;52.076;113.488;2022-12-29T19:04:33;-18.31;55.04
60242;SHT30;46103;52.076;113.488;2022-12-29T19:07:37;-18.41;55.70
60242;SHT30;46103;52.076;113.488;2022-12-29T19:10:41;-18.42;55.04
60242;SHT30;46103;52.076;113.488;2022-12-29T19:13:44;-18.44;55.78
60242;SHT30;46103;52.076;113.488;2022-12-29T19:16:48;-18.42;59.75
60242;SHT30;46103;52.076;113.488;2022-12-29T19:19:51;-18.46;55.99
60242;SHT30;46103;52.076;113.488;2022-12-29T19:22:57;-18.48;56.36
60242;SHT30;46103;52.076;113.488;2022-12-29T19:26:00;-18.26;63.49
60242;SHT30;46103;52.076;113.488;2022-12-29T19:29:05;-18.15;60.38
60242;SHT30;46103;52.076;113.488;2022-12-29T19:32:08;-18.10;61.95
60242;SHT30;46103;52.076;113.488;2022-12-29T19:35:12;-17.85;66.07
60242;SHT30;46103;52.076;113.488;2022-12-29T19:38:16;-17.52;69.60
60242;SHT30;46103;52.076;113.488;2022-12-29T19:41:20;-17.42;63.50
60242;SHT30;46103;52.076;113.488;2022-12-29T19:44:23;-17.26;64.35
60242;SHT30;46103;52.076;113.488;2022-12-29T19:47:46;-17.24;61.60
60242;SHT30;46103;52.076;113.488;2022-12-29T19:50:49;-17.11;63.66
60242;SHT30;46103;52.076;113.488;2022-12-29T19:53:54;-16.97;64.74
60242;SHT30;46103;52.076;113.488;2022-12-29T19:56:57;-16.80;66.09
60242;SHT30;46103;52.076;113.488;2022-12-29T20:00:00;-16.66;63.09
60242;SHT30;46103;52.076;113.488;2022-12-29T20:03:12;-16.62;63.66
60242;SHT30;46103;52.076;113.488;2022-12-29T20:06:34;-16.46;66.42
60242;SHT30;46103;52.076;113.488;2022-12-29T20:09:37;-16.62;56.77
60242;SHT30;46103;52.076;113.488;2022-12-29T20:12:41;-16.75;55.09
60242;SHT30;46103;52.076;113.488;2022-12-29T20:15:44;-16.89;55.20
60242;SHT30;46103;52.076;113.488;2022-12-29T20:18:48;-16.99;53.98
60242;SHT30;46103;52.076;113.488;2022-12-29T20:21:52;-17.13;53.90
60242;SHT30;46103;52.076;113.488;2022-12-29T20:24:54;-17.20;54.28
60242;SHT30;46103;52.076;113.488;2022-12-29T20:28:17;-17.30;53.63
60242;SHT30;46103;52.076;113.488;2022-12-29T20:31:36;-17.39;53.34
60242;SHT30;46103;52.076;113.488;2022-12-29T20:34:41;-17.48;54.70
60242;SHT30;46103;52.076;113.488;2022-12-29T20:37:45;-17.49;55.09
60242;SHT30;46103;52.076;113.488;2022-12-29T20:40:49;-17.49;54.15
60242;SHT30;46103;52.076;113.488;2022-12-29T20:43:53;-17.52;56.32
60242;SHT30;46103;52.076;113.488;2022-12-29T20:46:56;-17.52;54.92
60242;SHT30;46103;52.076;113.488;2022-12-29T20:49:59;-17.48;54.27
60242;SHT30;46103;52.076;113.488;2022-12-29T20:53:03;-17.47;54.35
60242;SHT30;46103;52.076;113.488;2022-12-29T20:56:09;-17.41;53.97
60242;SHT30;46103;52.076;113.488;2022-12-29T20:59:12;-17.38;54.24
60242;SHT30;46103;52.076;113.488;2022-12-29T21:02:29;-17.34;55.09
60242;SHT30;46103;52.076;113.488;2022-12-29T21:05:36;-17.32;55.45
60242;SHT30;46103;52.076;113.488;2022-12-29T21:08:39;-17.37;55.01
60242;SHT30;46103;52.076;113.488;2022-12-29T21:11:43;-17.31;55.30
60242;SHT30;46103;52.076;113.488;2022-12-29T21:14:46;-17.23;55.22
60242;SHT30;46103;52.076;113.488;2022-12-29T21:18:07;-17.16;54.33
60242;SHT30;46103;52.076;113.488;2022-12-29T21:21:24;-17.21;54.63
60242;SHT30;46103;52.076;113.488;2022-12-29T21:24:28;-17.24;55.05
60242;SHT30;46103;52.076;113.488;2022-12-29T21:27:32;-17.27;53.27
60242;SHT30;46103;52.076;113.488;2022-12-29T21:30:35;-17.37;53.82
60242;SHT30;46103;52.076;113.488;2022-12-29T21:33:39;-17.30;57.65
60242;SHT30;46103;52.076;113.488;2022-12-29T21:36:43;-17.06;61.51
60242;SHT30;46103;52.076;113.488;2022-12-29T21:39:47;-16.65;70.67
60242;SHT30;46103;52.076;113.488;2022-12-29T21:42:50;-16.34;71.43
60242;SHT30;46103;52.076;113.488;2022-12-29T21:45:54;-16.07;70.98
60242;SHT30;46103;52.076;113.488;2022-12-29T21:48:57;-15.95;70.22
60242;SHT30;46103;52.076;113.488;2022-12-29T21:52:00;-15.85;69.82
60242;SHT30;46103;52.076;113.488;2022-12-29T21:55:05;-15.79;64.78
60242;SHT30;46103;52.076;113.488;2022-12-29T21:58:10;-15.97;59.45
60242;SHT30;46103;52.076;113.488;2022-12-29T22:01:35;-15.97;68.75